Oxnard Airport
KOXR : rendu visible

Aérodrome :











RETROUVEZ-NOUS SUR...

 
LOGIN :

S'inscrire | Disclaimer

   EN    FR    IT 

 









Légende :    VFR   VFR Marginal   IFR   IFR Intensif   IFR Très Intensif
Visi : 
Plafond : 
>= 8 km
>= 3000ft
5 à 8 km
1000 à 3000 ft
1500m à 5 km
500 à 1000 ft
800 à 1500m
200 à 500 ft
< 800m
< 200 ft
Symboles :   Orages  Brouillard  Fortes neiges  Fortes précipitations  Vent > 20 kt






- Altitude de l'aérodrome : 45 ft


KOXR - Oxnard

DERNIER METAR :
  • 201051Z AUTO 28021G30KT 10SM OVC042 15/09 A2949 RMK AO2 PK WND 28033/1010 SLP985 T01500089

METARs EXPIRÉS :
  • 200951Z AUTO 28015KT 10SM BKN033 OVC041 15/10 A2950 RMK AO2 SLP989 T01500100
  • 200933Z AUTO 10SM OVC032 14/10 A2951 RMK AO2 T01440100
  • 200911Z AUTO 10SM BKN029 14/11 A2951 RMK AO2 T01440111
  • 200851Z AUTO 00000KT 10SM CLR 14/11 A2951 RMK AO2 SLP993 T01390106 57013

TAF KOXR
Valide du 20 à 12h jusqu'au 21 à 12h UTC


201121Z 2012/2112 28012G20KT P6SM VCSH SCT025 OVC040
FM201500 27008KT P6SM -SHRA BKN025 OVC040
FM202100 27012KT P6SM -SHRA BKN035 OVC060
FM210300 30007KT P6SM VCSH BKN035 BKN080
FM210800 05006KT P6SM SCT080 BKN150



MET'MAP, la Météo Aéronautique d'un coup d'oeil ! - Copyright ORBIFLY Décembre 2007 - Disclaimer

ORBIFLY MET'MAP TEAM :

Programmation & Développement : Alexandra Zaïnal
Conception & Développement : Baudouin d'Aumeries
Co-Programmation & Développement : Marc-Olivier Méhu
Soutien technique & logistique : Manuel Goepfert

Contact : metmap@orbifly.com




SOURCES & CREDITS :

   NOAA       Earth
Advisory